sensor_id;sensor_type;location;lat;lon;timestamp;pressure;altitude;pressure_sealevel;temperature;humidity
43420;BME280;29017;51.514;-0.178;2023-01-28T00:01:16;102717.13;;;6.52;75.45
43420;BME280;29017;51.514;-0.178;2023-01-28T00:03:43;102718.16;;;6.50;76.31
43420;BME280;29017;51.514;-0.178;2023-01-28T00:06:11;102717.91;;;6.54;75.10
43420;BME280;29017;51.514;-0.178;2023-01-28T00:08:39;102709.22;;;6.54;74.50
43420;BME280;29017;51.514;-0.178;2023-01-28T00:11:06;102723.81;;;6.58;74.51
43420;BME280;29017;51.514;-0.178;2023-01-28T00:13:33;102721.88;;;6.61;73.91
43420;BME280;29017;51.514;-0.178;2023-01-28T00:16:02;102717.44;;;6.63;73.62
43420;BME280;29017;51.514;-0.178;2023-01-28T00:18:30;102720.97;;;6.62;73.73
43420;BME280;29017;51.514;-0.178;2023-01-28T00:20:58;102723.50;;;6.64;73.99
43420;BME280;29017;51.514;-0.178;2023-01-28T00:23:26;102717.19;;;6.68;74.87
43420;BME280;29017;51.514;-0.178;2023-01-28T00:25:54;102710.97;;;6.70;73.12
43420;BME280;29017;51.514;-0.178;2023-01-28T00:28:23;102711.63;;;6.74;71.91
43420;BME280;29017;51.514;-0.178;2023-01-28T00:30:50;102712.56;;;6.73;71.85
43420;BME280;29017;51.514;-0.178;2023-01-28T00:33:17;102717.00;;;6.71;72.34
43420;BME280;29017;51.514;-0.178;2023-01-28T00:35:44;102717.00;;;6.71;72.67
43420;BME280;29017;51.514;-0.178;2023-01-28T00:38:11;102708.25;;;6.72;72.38
43420;BME280;29017;51.514;-0.178;2023-01-28T00:40:37;102702.03;;;6.74;72.19
43420;BME280;29017;51.514;-0.178;2023-01-28T00:43:04;102709.69;;;6.77;70.99
43420;BME280;29017;51.514;-0.178;2023-01-28T00:45:31;102702.50;;;6.81;71.41
43420;BME280;29017;51.514;-0.178;2023-01-28T00:47:58;102710.16;;;6.85;71.40
43420;BME280;29017;51.514;-0.178;2023-01-28T00:50:25;102704.72;;;6.88;70.42
43420;BME280;29017;51.514;-0.178;2023-01-28T00:52:52;102701.09;;;6.91;69.80
43420;BME280;29017;51.514;-0.178;2023-01-28T00:55:18;102703.56;;;6.94;70.09
43420;BME280;29017;51.514;-0.178;2023-01-28T00:57:45;102700.88;;;6.96;69.04
43420;BME280;29017;51.514;-0.178;2023-01-28T01:00:12;102701.53;;;6.99;68.96
43420;BME280;29017;51.514;-0.178;2023-01-28T01:02:39;102694.63;;;6.98;69.47
43420;BME280;29017;51.514;-0.178;2023-01-28T01:05:07;102699.66;;;7.01;68.67
43420;BME280;29017;51.514;-0.178;2023-01-28T01:07:34;102695.28;;;7.02;70.12
43420;BME280;29017;51.514;-0.178;2023-01-28T01:10:09;102710.91;;;7.03;70.70
43420;BME280;29017;51.514;-0.178;2023-01-28T01:12:36;102710.66;;;7.08;68.35
43420;BME280;29017;51.514;-0.178;2023-01-28T01:15:03;102708.88;;;7.08;67.97
43420;BME280;29017;51.514;-0.178;2023-01-28T01:17:34;102703.84;;;7.05;70.15
43420;BME280;29017;51.514;-0.178;2023-01-28T01:20:04;102713.72;;;7.00;69.63
43420;BME280;29017;51.514;-0.178;2023-01-28T01:22:32;102714.78;;;6.96;69.06
43420;BME280;29017;51.514;-0.178;2023-01-28T01:24:59;102712.09;;;6.98;70.64
43420;BME280;29017;51.514;-0.178;2023-01-28T01:27:26;102705.00;;;7.00;68.67
43420;BME280;29017;51.514;-0.178;2023-01-28T01:29:53;102710.00;;;7.04;69.02
43420;BME280;29017;51.514;-0.178;2023-01-28T01:32:20;102708.13;;;7.06;68.72
43420;BME280;29017;51.514;-0.178;2023-01-28T01:34:47;102706.53;;;7.04;67.60
43420;BME280;29017;51.514;-0.178;2023-01-28T01:37:14;102710.84;;;7.05;67.76
43420;BME280;29017;51.514;-0.178;2023-01-28T01:39:41;102709.81;;;7.07;68.09
43420;BME280;29017;51.514;-0.178;2023-01-28T01:42:09;102706.09;;;7.11;67.78
43420;BME280;29017;51.514;-0.178;2023-01-28T01:47:13;102709.41;;;7.15;67.53
43420;BME280;29017;51.514;-0.178;2023-01-28T01:49:41;102703.16;;;7.17;68.05
43420;BME280;29017;51.514;-0.178;2023-01-28T01:52:09;102703.16;;;7.17;67.94
43420;BME280;29017;51.514;-0.178;2023-01-28T01:54:38;102710.84;;;7.20;67.58
43420;BME280;29017;51.514;-0.178;2023-01-28T01:57:08;102694.38;;;7.18;67.54
43420;BME280;29017;51.514;-0.178;2023-01-28T01:59:41;102697.66;;;7.22;67.12
43420;BME280;29017;51.514;-0.178;2023-01-28T02:02:09;102713.34;;;7.22;66.79
43420;BME280;29017;51.514;-0.178;2023-01-28T02:04:38;102709.41;;;7.15;67.26
43420;BME280;29017;51.514;-0.178;2023-01-28T02:07:05;102709.81;;;7.07;67.98
43420;BME280;29017;51.514;-0.178;2023-01-28T02:09:34;102707.38;;;7.04;68.14
43420;BME280;29017;51.514;-0.178;2023-01-28T02:12:03;102708.03;;;7.08;66.13
43420;BME280;29017;51.514;-0.178;2023-01-28T02:14:33;102713.28;;;7.08;67.12
43420;BME280;29017;51.514;-0.178;2023-01-28T02:17:01;102709.81;;;7.07;67.98
43420;BME280;29017;51.514;-0.178;2023-01-28T02:19:31;102716.81;;;7.07;68.78
43420;BME280;29017;51.514;-0.178;2023-01-28T02:22:00;102715.03;;;7.07;67.60
43420;BME280;29017;51.514;-0.178;2023-01-28T02:29:29;102715.03;;;7.07;67.96
43420;BME280;29017;51.514;-0.178;2023-01-28T02:34:33;102717.59;;;7.09;68.51
43420;BME280;29017;51.514;-0.178;2023-01-28T02:37:05;102713.19;;;7.09;68.17
43420;BME280;29017;51.514;-0.178;2023-01-28T02:39:34;102705.28;;;7.11;68.33
43420;BME280;29017;51.514;-0.178;2023-01-28T02:42:04;102709.41;;;7.15;68.47
43420;BME280;29017;51.514;-0.178;2023-01-28T02:44:32;102713.63;;;7.17;66.65
43420;BME280;29017;51.514;-0.178;2023-01-28T02:46:59;102720.72;;;7.15;66.66
43420;BME280;29017;51.514;-0.178;2023-01-28T02:49:39;102715.63;;;7.12;66.64
43420;BME280;29017;51.514;-0.178;2023-01-28T03:04:44;102729.66;;;7.11;67.79
43420;BME280;29017;51.514;-0.178;2023-01-28T03:07:12;102729.75;;;7.10;67.85
43420;BME280;29017;51.514;-0.178;2023-01-28T03:09:40;102732.44;;;7.08;68.55
43420;BME280;29017;51.514;-0.178;2023-01-28T03:12:10;102735.13;;;7.07;67.81
43420;BME280;29017;51.514;-0.178;2023-01-28T03:14:49;102728.06;;;7.09;66.79
43420;BME280;29017;51.514;-0.178;2023-01-28T03:17:29;102742.97;;;7.07;67.06
43420;BME280;29017;51.514;-0.178;2023-01-28T03:20:08;102746.44;;;7.07;67.69
43420;BME280;29017;51.514;-0.178;2023-01-28T03:22:45;102735.13;;;7.07;67.19
43420;BME280;29017;51.514;-0.178;2023-01-28T03:25:23;102735.25;;;7.05;66.51
43420;BME280;29017;51.514;-0.178;2023-01-28T03:28:02;102733.53;;;7.04;65.98
43420;BME280;29017;51.514;-0.178;2023-01-28T03:30:42;102740.53;;;7.04;65.88
43420;BME280;29017;51.514;-0.178;2023-01-28T03:33:22;102737.94;;;7.04;66.01
43420;BME280;29017;51.514;-0.178;2023-01-28T03:35:58;102746.69;;;7.03;66.18
43420;BME280;29017;51.514;-0.178;2023-01-28T03:38:36;102742.38;;;7.02;66.69
43420;BME280;29017;51.514;-0.178;2023-01-28T03:41:09;102750.94;;;7.05;66.57
43420;BME280;29017;51.514;-0.178;2023-01-28T03:43:36;102746.78;;;7.01;67.22
43420;BME280;29017;51.514;-0.178;2023-01-28T03:46:03;102749.31;;;7.03;67.38
43420;BME280;29017;51.514;-0.178;2023-01-28T03:48:32;102753.88;;;6.99;67.71
43420;BME280;29017;51.514;-0.178;2023-01-28T03:50:58;102749.75;;;6.95;68.19
43420;BME280;29017;51.514;-0.178;2023-01-28T03:53:26;102744.66;;;6.92;68.45
43420;BME280;29017;51.514;-0.178;2023-01-28T03:55:54;102754.28;;;6.92;68.55
43420;BME280;29017;51.514;-0.178;2023-01-28T03:58:22;102761.28;;;6.91;67.73
43420;BME280;29017;51.514;-0.178;2023-01-28T04:00:52;102756.03;;;6.91;67.82
43420;BME280;29017;51.514;-0.178;2023-01-28T04:03:20;102759.50;;;6.92;68.39
43420;BME280;29017;51.514;-0.178;2023-01-28T04:08:24;102753.53;;;6.90;68.00
43420;BME280;29017;51.514;-0.178;2023-01-28T04:10:50;102746.53;;;6.90;67.14
43420;BME280;29017;51.514;-0.178;2023-01-28T04:13:18;102750.06;;;6.89;68.37
43420;BME280;29017;51.514;-0.178;2023-01-28T04:15:45;102755.38;;;6.87;67.57
43420;BME280;29017;51.514;-0.178;2023-01-28T04:18:12;102765.84;;;6.87;67.53
43420;BME280;29017;51.514;-0.178;2023-01-28T04:20:39;102762.38;;;6.87;67.73
43420;BME280;29017;51.514;-0.178;2023-01-28T04:23:06;102751.91;;;6.87;67.81
43420;BME280;29017;51.514;-0.178;2023-01-28T04:25:34;102750.13;;;6.87;68.18
43420;BME280;29017;51.514;-0.178;2023-01-28T04:28:01;102744.91;;;6.87;68.38
43420;BME280;29017;51.514;-0.178;2023-01-28T04:30:27;102755.38;;;6.87;68.64
43420;BME280;29017;51.514;-0.178;2023-01-28T04:32:54;102758.06;;;6.86;68.87
43420;BME280;29017;51.514;-0.178;2023-01-28T04:35:21;102760.66;;;6.86;68.76
43420;BME280;29017;51.514;-0.178;2023-01-28T04:37:48;102760.78;;;6.84;68.99
43420;BME280;29017;51.514;-0.178;2023-01-28T04:40:15;102763.47;;;6.83;69.49
43420;BME280;29017;51.514;-0.178;2023-01-28T04:42:42;102767.78;;;6.84;69.83
43420;BME280;29017;51.514;-0.178;2023-01-28T04:45:18;102763.38;;;6.84;69.14
43420;BME280;29017;51.514;-0.178;2023-01-28T04:47:44;102753.91;;;6.82;69.75
43420;BME280;29017;51.514;-0.178;2023-01-28T04:50:11;102746.97;;;6.81;70.17
43420;BME280;29017;51.514;-0.178;2023-01-28T04:52:38;102746.25;;;6.79;70.02
43420;BME280;29017;51.514;-0.178;2023-01-28T04:55:05;102745.41;;;6.78;69.98
43420;BME280;29017;51.514;-0.178;2023-01-28T04:57:33;102754.16;;;6.77;69.82
43420;BME280;29017;51.514;-0.178;2023-01-28T04:59:59;102751.53;;;6.77;69.05
43420;BME280;29017;51.514;-0.178;2023-01-28T05:02:26;102749.78;;;6.78;69.20
43420;BME280;29017;51.514;-0.178;2023-01-28T05:04:53;102748.84;;;6.79;68.37
43420;BME280;29017;51.514;-0.178;2023-01-28T05:07:20;102735.19;;;6.74;67.35
43420;BME280;29017;51.514;-0.178;2023-01-28T05:09:46;102736.09;;;6.73;67.72
43420;BME280;29017;51.514;-0.178;2023-01-28T05:12:13;102730.94;;;6.71;68.58
43420;BME280;29017;51.514;-0.178;2023-01-28T05:14:40;102744.00;;;6.71;68.76
43420;BME280;29017;51.514;-0.178;2023-01-28T05:17:08;102744.00;;;6.71;68.34
43420;BME280;29017;51.514;-0.178;2023-01-28T05:19:34;102742.34;;;6.70;68.45
43420;BME280;29017;51.514;-0.178;2023-01-28T05:22:01;102737.13;;;6.70;68.88
43420;BME280;29017;51.514;-0.178;2023-01-28T05:24:28;102739.81;;;6.69;68.33
43420;BME280;29017;51.514;-0.178;2023-01-28T05:26:55;102731.88;;;6.70;68.96
43420;BME280;29017;51.514;-0.178;2023-01-28T05:29:22;102735.31;;;6.71;68.26
43420;BME280;29017;51.514;-0.178;2023-01-28T05:31:49;102746.72;;;6.70;67.58
43420;BME280;29017;51.514;-0.178;2023-01-28T05:34:16;102744.00;;;6.71;66.81
43420;BME280;29017;51.514;-0.178;2023-01-28T05:36:43;102744.84;;;6.72;68.24
43420;BME280;29017;51.514;-0.178;2023-01-28T05:39:11;102747.56;;;6.70;66.95
43420;BME280;29017;51.514;-0.178;2023-01-28T05:41:37;102751.00;;;6.71;68.01
43420;BME280;29017;51.514;-0.178;2023-01-28T05:44:04;102744.00;;;6.71;64.17
43420;BME280;29017;51.514;-0.178;2023-01-28T05:46:31;102738.88;;;6.70;64.94
43420;BME280;29017;51.514;-0.178;2023-01-28T05:48:58;102737.00;;;6.72;66.29
43420;BME280;29017;51.514;-0.178;2023-01-28T05:51:25;102739.94;;;6.66;63.08
43420;BME280;29017;51.514;-0.178;2023-01-28T05:53:51;102749.47;;;6.67;63.58
43420;BME280;29017;51.514;-0.178;2023-01-28T05:56:18;102744.25;;;6.67;63.69
43420;BME280;29017;51.514;-0.178;2023-01-28T05:58:45;102744.19;;;6.68;64.31
43420;BME280;29017;51.514;-0.178;2023-01-28T06:01:12;102748.50;;;6.69;64.40
43420;BME280;29017;51.514;-0.178;2023-01-28T06:03:39;102750.19;;;6.70;63.54
43420;BME280;29017;51.514;-0.178;2023-01-28T06:06:05;102751.00;;;6.71;63.07
43420;BME280;29017;51.514;-0.178;2023-01-28T06:08:32;102763.88;;;6.75;63.53
43420;BME280;29017;51.514;-0.178;2023-01-28T06:10:59;102758.53;;;6.77;62.04
43420;BME280;29017;51.514;-0.178;2023-01-28T06:13:26;102756.78;;;6.77;62.37
43420;BME280;29017;51.514;-0.178;2023-01-28T06:15:52;102761.25;;;6.75;63.36
43420;BME280;29017;51.514;-0.178;2023-01-28T06:18:19;102753.31;;;6.77;62.22
43420;BME280;29017;51.514;-0.178;2023-01-28T06:20:47;102753.25;;;6.78;62.18
43420;BME280;29017;51.514;-0.178;2023-01-28T06:23:14;102755.06;;;6.76;62.44
43420;BME280;29017;51.514;-0.178;2023-01-28T06:25:41;102758.47;;;6.78;61.32
43420;BME280;29017;51.514;-0.178;2023-01-28T06:28:08;102769.84;;;6.77;60.91
43420;BME280;29017;51.514;-0.178;2023-01-28T06:30:35;102763.88;;;6.75;61.61
43420;BME280;29017;51.514;-0.178;2023-01-28T06:33:02;102757.69;;;6.76;61.45
43420;BME280;29017;51.514;-0.178;2023-01-28T06:35:28;102766.38;;;6.77;61.54
43420;BME280;29017;51.514;-0.178;2023-01-28T06:37:55;102761.16;;;6.77;61.23
43420;BME280;29017;51.514;-0.178;2023-01-28T06:40:22;102767.31;;;6.76;60.74
43420;BME280;29017;51.514;-0.178;2023-01-28T06:42:50;102763.88;;;6.75;62.18
43420;BME280;29017;51.514;-0.178;2023-01-28T06:45:17;102767.47;;;6.73;62.68
43420;BME280;29017;51.514;-0.178;2023-01-28T06:47:43;102764.78;;;6.74;62.40
43420;BME280;29017;51.514;-0.178;2023-01-28T06:50:10;102769.09;;;6.75;61.95
43420;BME280;29017;51.514;-0.178;2023-01-28T06:52:38;102772.47;;;6.77;61.79
43420;BME280;29017;51.514;-0.178;2023-01-28T06:55:05;102770.63;;;6.79;61.87
43420;BME280;29017;51.514;-0.178;2023-01-28T06:57:32;102771.47;;;6.80;61.74
43420;BME280;29017;51.514;-0.178;2023-01-28T06:59:59;102781.84;;;6.81;62.23
43420;BME280;29017;51.514;-0.178;2023-01-28T07:02:26;102782.56;;;6.85;61.75
43420;BME280;29017;51.514;-0.178;2023-01-28T07:04:53;102773.84;;;6.84;61.58
43420;BME280;29017;51.514;-0.178;2023-01-28T07:07:20;102766.75;;;6.86;62.30
43420;BME280;29017;51.514;-0.178;2023-01-28T07:09:47;102776.28;;;6.87;62.60
43420;BME280;29017;51.514;-0.178;2023-01-28T07:12:14;102777.06;;;6.90;63.01
43420;BME280;29017;51.514;-0.178;2023-01-28T07:14:41;102788.28;;;6.92;62.79
43420;BME280;29017;51.514;-0.178;2023-01-28T07:17:08;102784.81;;;6.91;62.75
43420;BME280;29017;51.514;-0.178;2023-01-28T07:19:34;102789.06;;;6.94;63.99
43420;BME280;29017;51.514;-0.178;2023-01-28T07:22:01;102781.22;;;6.94;64.96
43420;BME280;29017;51.514;-0.178;2023-01-28T07:24:29;102782.97;;;6.93;64.58
43420;BME280;29017;51.514;-0.178;2023-01-28T07:26:56;102783.81;;;6.94;64.93
43420;BME280;29017;51.514;-0.178;2023-01-28T07:29:23;102785.41;;;6.96;64.96
43420;BME280;29017;51.514;-0.178;2023-01-28T07:31:49;102788.03;;;6.96;64.31
43420;BME280;29017;51.514;-0.178;2023-01-28T07:34:16;102788.03;;;6.96;64.91
43420;BME280;29017;51.514;-0.178;2023-01-28T07:36:43;102781.88;;;6.97;64.35
43420;BME280;29017;51.514;-0.178;2023-01-28T07:39:10;102772.50;;;6.93;64.11
43420;BME280;29017;51.514;-0.178;2023-01-28T07:41:37;102781.28;;;6.92;63.49
43420;BME280;29017;51.514;-0.178;2023-01-28T07:44:04;102780.38;;;6.93;63.59
43420;BME280;29017;51.514;-0.178;2023-01-28T07:46:31;102776.91;;;6.93;62.55
43420;BME280;29017;51.514;-0.178;2023-01-28T07:48:58;102774.22;;;6.94;62.82
43420;BME280;29017;51.514;-0.178;2023-01-28T07:51:25;102784.50;;;6.97;62.97
43420;BME280;29017;51.514;-0.178;2023-01-28T07:53:52;102785.09;;;7.02;61.49
43420;BME280;29017;51.514;-0.178;2023-01-28T07:56:19;102785.09;;;7.02;61.75
43420;BME280;29017;51.514;-0.178;2023-01-28T07:58:48;102795.50;;;7.04;62.95
43420;BME280;29017;51.514;-0.178;2023-01-28T08:01:16;102792.03;;;7.03;63.84
43420;BME280;29017;51.514;-0.178;2023-01-28T08:03:43;102792.03;;;7.03;64.46
43420;BME280;29017;51.514;-0.178;2023-01-28T08:06:10;102788.50;;;7.04;64.39
43420;BME280;29017;51.514;-0.178;2023-01-28T08:08:37;102794.47;;;7.06;64.60
43420;BME280;29017;51.514;-0.178;2023-01-28T08:11:06;102793.56;;;7.07;63.97
43420;BME280;29017;51.514;-0.178;2023-01-28T08:13:34;102788.31;;;7.07;63.25
43420;BME280;29017;51.514;-0.178;2023-01-28T08:16:01;102786.47;;;7.09;63.64
43420;BME280;29017;51.514;-0.178;2023-01-28T08:18:31;102784.59;;;7.11;64.41
43420;BME280;29017;51.514;-0.178;2023-01-28T08:20:57;102787.16;;;7.13;63.92
43420;BME280;29017;51.514;-0.178;2023-01-28T08:23:25;102789.09;;;7.09;63.19
43420;BME280;29017;51.514;-0.178;2023-01-28T08:25:52;102796.78;;;7.12;63.52
43420;BME280;29017;51.514;-0.178;2023-01-28T08:28:19;102789.84;;;7.11;62.96
43420;BME280;29017;51.514;-0.178;2023-01-28T08:30:46;102785.56;;;7.10;63.12
43420;BME280;29017;51.514;-0.178;2023-01-28T08:33:13;102789.84;;;7.11;63.97
43420;BME280;29017;51.514;-0.178;2023-01-28T08:35:40;102790.69;;;7.12;64.30
43420;BME280;29017;51.514;-0.178;2023-01-28T08:38:08;102788.19;;;7.10;64.78
43420;BME280;29017;51.514;-0.178;2023-01-28T08:40:36;102794.25;;;7.11;65.14
43420;BME280;29017;51.514;-0.178;2023-01-28T08:43:03;102801.09;;;7.13;64.91
43420;BME280;29017;51.514;-0.178;2023-01-28T08:45:30;102803.63;;;7.15;64.39
43420;BME280;29017;51.514;-0.178;2023-01-28T08:48:01;102799.25;;;7.15;63.02
43420;BME280;29017;51.514;-0.178;2023-01-28T08:50:29;102797.38;;;7.17;63.24
43420;BME280;29017;51.514;-0.178;2023-01-28T08:52:59;102799.91;;;7.19;63.21
43420;BME280;29017;51.514;-0.178;2023-01-28T08:55:27;102799.75;;;7.22;63.27
43420;BME280;29017;51.514;-0.178;2023-01-28T08:57:54;102808.19;;;7.27;63.50
43420;BME280;29017;51.514;-0.178;2023-01-28T09:00:23;102798.50;;;7.29;63.65
43420;BME280;29017;51.514;-0.178;2023-01-28T09:02:51;102804.34;;;7.34;63.94
43420;BME280;29017;51.514;-0.178;2023-01-28T09:05:19;102812.00;;;7.37;64.07
43420;BME280;29017;51.514;-0.178;2023-01-28T09:07:47;102814.63;;;7.37;64.04
43420;BME280;29017;51.514;-0.178;2023-01-28T09:10:14;102818.03;;;7.39;64.18
43420;BME280;29017;51.514;-0.178;2023-01-28T09:12:42;102808.31;;;7.41;64.26
43420;BME280;29017;51.514;-0.178;2023-01-28T09:15:10;102812.78;;;7.39;63.62
43420;BME280;29017;51.514;-0.178;2023-01-28T09:17:37;102816.19;;;7.41;63.57
43420;BME280;29017;51.514;-0.178;2023-01-28T09:20:05;102823.25;;;7.39;63.22
43420;BME280;29017;51.514;-0.178;2023-01-28T09:22:32;102827.56;;;7.40;63.78
43420;BME280;29017;51.514;-0.178;2023-01-28T09:24:59;102834.41;;;7.43;63.28
43420;BME280;29017;51.514;-0.178;2023-01-28T09:27:25;102837.78;;;7.45;63.79
43420;BME280;29017;51.514;-0.178;2023-01-28T09:29:52;102838.72;;;7.44;63.75
43420;BME280;29017;51.514;-0.178;2023-01-28T09:32:19;102833.41;;;7.45;64.04
43420;BME280;29017;51.514;-0.178;2023-01-28T09:34:46;102828.06;;;7.47;64.40
43420;BME280;29017;51.514;-0.178;2023-01-28T09:37:13;102835.91;;;7.47;64.32
43420;BME280;29017;51.514;-0.178;2023-01-28T09:39:41;102844.47;;;7.50;64.27
43420;BME280;29017;51.514;-0.178;2023-01-28T09:47:21;102830.88;;;7.59;64.07
43420;BME280;29017;51.514;-0.178;2023-01-28T09:49:50;102830.69;;;7.62;64.33
43420;BME280;29017;51.514;-0.178;2023-01-28T09:52:20;102835.59;;;7.68;64.83
43420;BME280;29017;51.514;-0.178;2023-01-28T09:57:38;102837.13;;;7.72;64.23
43420;BME280;29017;51.514;-0.178;2023-01-28T10:00:11;102830.81;;;7.77;64.47
43420;BME280;29017;51.514;-0.178;2023-01-28T10:05:19;102831.41;;;7.82;64.79
43420;BME280;29017;51.514;-0.178;2023-01-28T10:10:19;102827.59;;;7.87;63.27
43420;BME280;29017;51.514;-0.178;2023-01-28T10:12:51;102823.75;;;7.93;63.17
43420;BME280;29017;51.514;-0.178;2023-01-28T10:17:55;102829.50;;;7.99;62.25
43420;BME280;29017;51.514;-0.178;2023-01-28T10:23:15;102826.72;;;8.02;61.78
43420;BME280;29017;51.514;-0.178;2023-01-28T10:25:48;102826.53;;;8.05;61.87
43420;BME280;29017;51.514;-0.178;2023-01-28T10:28:18;102824.78;;;8.06;61.52
43420;BME280;29017;51.514;-0.178;2023-01-28T10:30:45;102831.53;;;8.10;62.28
43420;BME280;29017;51.514;-0.178;2023-01-28T10:35:42;102827.91;;;8.12;62.37
43420;BME280;29017;51.514;-0.178;2023-01-28T10:38:12;102828.81;;;8.11;62.03
43420;BME280;29017;51.514;-0.178;2023-01-28T10:40:41;102826.94;;;8.13;61.89
43420;BME280;29017;51.514;-0.178;2023-01-28T10:43:09;102820.84;;;8.13;61.31
43420;BME280;29017;51.514;-0.178;2023-01-28T10:45:39;102797.03;;;8.18;61.49
43420;BME280;29017;51.514;-0.178;2023-01-28T10:48:25;102803.78;;;8.22;63.25
43420;BME280;29017;51.514;-0.178;2023-01-28T10:50:55;102810.59;;;8.24;62.66
43420;BME280;29017;51.514;-0.178;2023-01-28T10:56:02;102790.19;;;8.29;62.40
43420;BME280;29017;51.514;-0.178;2023-01-28T10:58:30;102774.34;;;8.32;61.41
43420;BME280;29017;51.514;-0.178;2023-01-28T11:00:59;102772.44;;;8.34;60.56
43420;BME280;29017;51.514;-0.178;2023-01-28T11:03:27;102760.09;;;8.36;61.30
43420;BME280;29017;51.514;-0.178;2023-01-28T11:05:56;102764.16;;;8.42;62.15
43420;BME280;29017;51.514;-0.178;2023-01-28T11:08:25;102758.72;;;8.45;61.47
43420;BME280;29017;51.514;-0.178;2023-01-28T11:10:52;102748.88;;;8.48;61.12
43420;BME280;29017;51.514;-0.178;2023-01-28T11:18:17;102723.69;;;8.60;60.32
43420;BME280;29017;51.514;-0.178;2023-01-28T11:20:48;102722.66;;;8.63;59.95
43420;BME280;29017;51.514;-0.178;2023-01-28T11:23:17;102712.91;;;8.65;59.94
43420;BME280;29017;51.514;-0.178;2023-01-28T11:25:45;102728.47;;;8.68;59.49
43420;BME280;29017;51.514;-0.178;2023-01-28T11:28:16;102733.53;;;8.71;59.97
43420;BME280;29017;51.514;-0.178;2023-01-28T11:30:49;102734.09;;;8.76;59.59
43420;BME280;29017;51.514;-0.178;2023-01-28T11:33:18;102741.88;;;8.77;59.19
43420;BME280;29017;51.514;-0.178;2023-01-28T11:35:55;102742.63;;;8.79;59.20
43420;BME280;29017;51.514;-0.178;2023-01-28T11:38:24;102741.50;;;8.83;60.49
43420;BME280;29017;51.514;-0.178;2023-01-28T11:40:51;102747.97;;;8.92;59.97
43420;BME280;29017;51.514;-0.178;2023-01-28T11:43:21;102739.91;;;8.95;60.13
43420;BME280;29017;51.514;-0.178;2023-01-28T11:45:53;102740.56;;;8.98;60.03
43420;BME280;29017;51.514;-0.178;2023-01-28T11:53:33;102748.81;;;9.07;59.64
43420;BME280;29017;51.514;-0.178;2023-01-28T12:08:45;102768.78;;;9.09;59.23
43420;BME280;29017;51.514;-0.178;2023-01-28T12:16:17;102765.13;;;9.12;60.61
43420;BME280;29017;51.514;-0.178;2023-01-28T12:21:31;102764.91;;;9.15;60.63
43420;BME280;29017;51.514;-0.178;2023-01-28T12:39:17;102748.19;;;9.30;58.74
43420;BME280;29017;51.514;-0.178;2023-01-28T12:41:47;102751.56;;;9.32;58.48
43420;BME280;29017;51.514;-0.178;2023-01-28T12:44:19;102743.59;;;9.33;59.09
43420;BME280;29017;51.514;-0.178;2023-01-28T12:46:49;102733.94;;;9.34;61.30
43420;BME280;29017;51.514;-0.178;2023-01-28T12:49:20;102739.19;;;9.34;60.74
43420;BME280;29017;51.514;-0.178;2023-01-28T12:51:53;102737.22;;;9.37;59.57
43420;BME280;29017;51.514;-0.178;2023-01-28T12:54:29;102730.88;;;9.54;69.53
43420;BME280;29017;51.514;-0.178;2023-01-28T12:56:57;102726.81;;;9.63;64.08
43420;BME280;29017;51.514;-0.178;2023-01-28T12:59:27;102720.09;;;9.71;62.33
43420;BME280;29017;51.514;-0.178;2023-01-28T13:01:56;102722.72;;;9.71;59.79
43420;BME280;29017;51.514;-0.178;2023-01-28T13:04:33;102716.00;;;9.67;58.95
43420;BME280;29017;51.514;-0.178;2023-01-28T13:07:08;102708.13;;;9.67;59.01
43420;BME280;29017;51.514;-0.178;2023-01-28T13:09:40;102701.91;;;9.68;61.32
43420;BME280;29017;51.514;-0.178;2023-01-28T13:12:10;102713.59;;;9.64;59.13
43420;BME280;29017;51.514;-0.178;2023-01-28T13:14:39;102718.09;;;9.62;58.22
43420;BME280;29017;51.514;-0.178;2023-01-28T13:17:08;102712.91;;;9.61;58.79
43420;BME280;29017;51.514;-0.178;2023-01-28T13:19:37;102712.19;;;9.59;59.56
43420;BME280;29017;51.514;-0.178;2023-01-28T13:24:45;102700.28;;;9.53;60.24
43420;BME280;29017;51.514;-0.178;2023-01-28T13:27:20;102699.66;;;9.50;60.42
43420;BME280;29017;51.514;-0.178;2023-01-28T13:29:48;102688.19;;;9.51;60.27
43420;BME280;29017;51.514;-0.178;2023-01-28T13:32:30;102688.84;;;9.54;59.45
43420;BME280;29017;51.514;-0.178;2023-01-28T13:34:58;102694.28;;;9.51;58.17
43420;BME280;29017;51.514;-0.178;2023-01-28T13:37:32;102690.09;;;9.49;59.22
43420;BME280;29017;51.514;-0.178;2023-01-28T13:42:28;102684.91;;;9.47;59.57
43420;BME280;29017;51.514;-0.178;2023-01-28T13:45:06;102686.41;;;9.51;59.79
43420;BME280;29017;51.514;-0.178;2023-01-28T13:47:34;102683.78;;;9.51;59.67
43420;BME280;29017;51.514;-0.178;2023-01-28T13:50:10;102682.75;;;9.54;61.77
43420;BME280;29017;51.514;-0.178;2023-01-28T13:55:19;102675.72;;;9.54;63.19
43420;BME280;29017;51.514;-0.178;2023-01-28T14:10:54;102677.50;;;9.54;60.53
43420;BME280;29017;51.514;-0.178;2023-01-28T14:18:37;102662.34;;;9.57;60.24
43420;BME280;29017;51.514;-0.178;2023-01-28T14:23:44;102660.19;;;9.64;61.33
43420;BME280;29017;51.514;-0.178;2023-01-28T14:26:16;102650.59;;;9.63;60.77
43420;BME280;29017;51.514;-0.178;2023-01-28T14:31:26;102665.53;;;9.62;62.11
43420;BME280;29017;51.514;-0.178;2023-01-28T14:33:54;102668.25;;;9.61;62.07
43420;BME280;29017;51.514;-0.178;2023-01-28T14:36:24;102658.69;;;9.60;61.17
43420;BME280;29017;51.514;-0.178;2023-01-28T14:38:51;102660.34;;;9.61;61.04
43420;BME280;29017;51.514;-0.178;2023-01-28T14:41:23;102666.47;;;9.61;61.53
43420;BME280;29017;51.514;-0.178;2023-01-28T14:43:53;102662.34;;;9.57;61.15
43420;BME280;29017;51.514;-0.178;2023-01-28T14:51:35;102674.66;;;9.57;62.95
43420;BME280;29017;51.514;-0.178;2023-01-28T15:01:45;102707.25;;;9.54;63.43
43420;BME280;29017;51.514;-0.178;2023-01-28T15:06:49;102709.03;;;9.54;63.50
43420;BME280;29017;51.514;-0.178;2023-01-28T15:09:17;102706.56;;;9.51;62.48
43420;BME280;29017;51.514;-0.178;2023-01-28T15:11:44;102710.16;;;9.50;64.17
43420;BME280;29017;51.514;-0.178;2023-01-28T15:14:15;102710.34;;;9.47;64.48
43420;BME280;29017;51.514;-0.178;2023-01-28T15:16:46;102710.34;;;9.47;63.27
43420;BME280;29017;51.514;-0.178;2023-01-28T15:19:13;102716.44;;;9.47;63.11